createdAt,value
2023-11-23T00:00:02.849Z,0
2023-11-23T00:01:04.035Z,0
2023-11-23T00:02:05.369Z,0
2023-11-23T00:03:06.661Z,0
2023-11-23T00:04:08.076Z,0
2023-11-23T00:05:09.278Z,0
2023-11-23T00:06:10.550Z,0
2023-11-23T00:07:11.750Z,0
2023-11-23T00:08:15.823Z,0
2023-11-23T00:09:17.110Z,0
2023-11-23T00:10:18.352Z,0
2023-11-23T00:11:19.587Z,0
2023-11-23T00:12:20.779Z,0
2023-11-23T00:13:22.077Z,0
2023-11-23T00:14:23.386Z,0
2023-11-23T00:15:24.633Z,0
2023-11-23T00:16:25.920Z,0
2023-11-23T00:17:27.081Z,0
2023-11-23T00:18:28.424Z,0
2023-11-23T00:19:29.588Z,0
2023-11-23T00:20:30.895Z,0
2023-11-23T00:21:32.105Z,0
2023-11-23T00:22:33.323Z,0
2023-11-23T00:23:34.903Z,0
2023-11-23T00:24:36.192Z,0
2023-11-23T00:25:37.475Z,0
2023-11-23T00:26:38.795Z,0
2023-11-23T00:27:40.051Z,0
2023-11-23T00:28:41.344Z,0
2023-11-23T00:29:42.553Z,0
2023-11-23T00:30:43.781Z,0
2023-11-23T00:31:45.034Z,0
2023-11-23T00:32:46.328Z,0
2023-11-23T00:33:47.674Z,0
2023-11-23T00:34:49.046Z,0
2023-11-23T00:35:50.130Z,0
2023-11-23T00:36:51.399Z,0
2023-11-23T00:37:52.604Z,0
2023-11-23T00:38:53.856Z,0
2023-11-23T00:39:55.093Z,0
2023-11-23T00:40:56.512Z,0
2023-11-23T00:41:57.804Z,0
2023-11-23T00:42:59.080Z,0
2023-11-23T00:44:00.503Z,0
2023-11-23T00:45:01.749Z,0
2023-11-23T00:46:03.053Z,0
2023-11-23T00:47:04.246Z,0
2023-11-23T00:48:05.575Z,0
2023-11-23T00:49:06.944Z,0
2023-11-23T00:50:08.175Z,0
2023-11-23T00:51:09.418Z,0
2023-11-23T00:52:10.578Z,0
2023-11-23T00:53:11.804Z,0
2023-11-23T00:54:13.143Z,0
2023-11-23T00:56:15.845Z,0
2023-11-23T00:57:17.153Z,0
2023-11-23T00:58:18.334Z,0
2023-11-23T00:59:19.623Z,0
2023-11-23T01:00:21.017Z,0
2023-11-23T01:01:22.374Z,0
2023-11-23T01:02:23.623Z,0
2023-11-23T01:03:24.970Z,0
2023-11-23T01:04:26.144Z,0
2023-11-23T01:05:27.351Z,0
2023-11-23T01:06:28.620Z,0
2023-11-23T01:07:29.839Z,0
2023-11-23T01:08:31.210Z,0
2023-11-23T01:09:32.452Z,0
2023-11-23T01:10:33.789Z,0
2023-11-23T01:11:35.046Z,0
2023-11-23T01:12:36.259Z,0
2023-11-23T01:13:37.544Z,0
2023-11-23T01:14:38.915Z,0
2023-11-23T01:15:39.976Z,0
2023-11-23T01:16:41.194Z,0
2023-11-23T01:17:42.469Z,0
2023-11-23T01:18:43.700Z,0
2023-11-23T01:19:44.909Z,0
2023-11-23T01:20:46.271Z,0
2023-11-23T01:21:47.469Z,0
2023-11-23T01:22:48.671Z,0
2023-11-23T01:23:50.102Z,0
2023-11-23T01:24:51.213Z,0
2023-11-23T01:25:52.444Z,0
2023-11-23T01:26:53.723Z,0
2023-11-23T01:27:55.096Z,0
2023-11-23T01:28:56.308Z,0
2023-11-23T01:29:57.597Z,0
2023-11-23T01:30:58.789Z,0
2023-11-23T01:32:00.036Z,0
2023-11-23T01:33:01.384Z,0
2023-11-23T01:34:02.758Z,0
2023-11-23T01:35:04.142Z,0
2023-11-23T01:36:05.475Z,0
2023-11-23T01:37:06.700Z,0
2023-11-23T01:38:07.986Z,0
2023-11-23T01:39:09.243Z,0
2023-11-23T01:40:10.445Z,0
2023-11-23T01:41:11.657Z,0
2023-11-23T01:42:12.880Z,0
2023-11-23T01:44:34.401Z,0
2023-11-23T01:45:35.642Z,0
2023-11-23T01:46:36.798Z,0
2023-11-23T01:47:38.072Z,0
2023-11-23T01:48:39.302Z,0
2023-11-23T01:49:40.444Z,0
2023-11-23T01:50:41.755Z,0
2023-11-23T01:51:42.995Z,0
2023-11-23T01:52:44.243Z,0
2023-11-23T01:53:45.567Z,0
2023-11-23T01:54:46.921Z,0
2023-11-23T01:55:48.168Z,0
2023-11-23T01:56:49.482Z,0
2023-11-23T01:57:50.714Z,0
2023-11-23T01:58:51.958Z,0
2023-11-23T01:59:53.239Z,0
2023-11-23T02:00:54.670Z,0
2023-11-23T02:01:55.932Z,0
2023-11-23T02:02:57.145Z,0
2023-11-23T02:03:58.358Z,0
2023-11-23T02:04:59.623Z,0
2023-11-23T02:06:00.908Z,0
2023-11-23T02:07:02.320Z,0
2023-11-23T02:08:03.793Z,0
2023-11-23T02:09:05.068Z,0
2023-11-23T02:10:06.259Z,0
2023-11-23T02:11:07.653Z,0
2023-11-23T02:12:09.012Z,0
2023-11-23T02:13:10.191Z,0
2023-11-23T02:14:11.404Z,0
2023-11-23T02:15:12.614Z,0
2023-11-23T02:16:13.972Z,0
2023-11-23T02:17:15.484Z,0
2023-11-23T02:18:16.810Z,0
2023-11-23T02:19:18.011Z,0
2023-11-23T02:20:19.304Z,0
2023-11-23T02:21:20.613Z,0
2023-11-23T02:22:21.841Z,0
2023-11-23T02:23:23.042Z,0
2023-11-23T02:24:24.518Z,0
2023-11-23T02:25:25.714Z,0
2023-11-23T02:26:26.927Z,0
2023-11-23T02:27:28.150Z,0
2023-11-23T02:28:29.387Z,0
2023-11-23T02:29:30.639Z,0
2023-11-23T02:30:31.863Z,0
2023-11-23T02:31:33.670Z,0
2023-11-23T02:32:34.880Z,0
2023-11-23T02:33:36.143Z,0
2023-11-23T02:34:37.273Z,0
2023-11-23T02:35:38.494Z,0
2023-11-23T02:36:39.718Z,0
2023-11-23T02:37:40.923Z,0
2023-11-23T02:38:42.146Z,0
2023-11-23T02:39:43.337Z,0
2023-11-23T02:40:44.532Z,0
2023-11-23T02:41:45.874Z,0
2023-11-23T02:42:47.049Z,0
2023-11-23T02:43:48.238Z,0
2023-11-23T02:44:49.479Z,0
2023-11-23T02:45:50.705Z,0
2023-11-23T02:46:51.915Z,0
2023-11-23T02:47:53.159Z,0
2023-11-23T02:48:54.408Z,0
2023-11-23T02:49:55.603Z,0
2023-11-23T02:50:56.875Z,0
2023-11-23T02:51:58.139Z,0
2023-11-23T02:52:59.343Z,0
2023-11-23T02:54:00.567Z,0
2023-11-23T02:55:01.815Z,0
2023-11-23T02:56:03.056Z,0
2023-11-23T02:57:04.348Z,0
2023-11-23T02:58:05.652Z,0
2023-11-23T02:59:07.073Z,0
2023-11-23T03:00:11.653Z,0
2023-11-23T03:01:12.774Z,0
2023-11-23T03:02:14.029Z,0
2023-11-23T03:03:15.449Z,0
2023-11-23T03:04:16.605Z,0
2023-11-23T03:05:17.847Z,0
2023-11-23T03:06:19.174Z,0
2023-11-23T03:07:20.329Z,0
2023-11-23T03:08:21.571Z,0
2023-11-23T03:09:22.815Z,0
2023-11-23T03:10:24.176Z,0
2023-11-23T03:11:25.407Z,0
2023-11-23T03:12:26.615Z,0
2023-11-23T03:13:27.858Z,0
2023-11-23T03:14:29.079Z,0
2023-11-23T03:15:30.240Z,0
2023-11-23T03:16:31.484Z,0
2023-11-23T03:17:32.777Z,0
2023-11-23T03:18:34.040Z,0
2023-11-23T03:19:35.166Z,0
2023-11-23T03:20:36.616Z,0
2023-11-23T03:21:37.898Z,0
2023-11-23T03:22:39.065Z,0
2023-11-23T03:23:40.320Z,0
2023-11-23T03:24:41.558Z,0
2023-11-23T03:25:42.773Z,0
2023-11-23T03:26:43.979Z,0
2023-11-23T03:27:45.184Z,0
2023-11-23T03:28:46.426Z,0
2023-11-23T03:29:47.758Z,0
2023-11-23T03:30:48.951Z,0
2023-11-23T03:31:50.138Z,0
2023-11-23T03:32:51.475Z,0
2023-11-23T03:33:52.696Z,0
2023-11-23T03:34:53.968Z,0
2023-11-23T03:35:55.222Z,0
2023-11-23T03:36:56.361Z,0
2023-11-23T03:37:57.591Z,0
2023-11-23T03:38:58.841Z,0
2023-11-23T03:40:00.011Z,0
2023-11-23T03:41:01.283Z,0
2023-11-23T03:42:02.556Z,0
2023-11-23T03:43:03.771Z,0
2023-11-23T03:44:05.091Z,0
2023-11-23T03:45:06.332Z,0
2023-11-23T03:46:07.521Z,0
2023-11-23T03:47:08.761Z,0
2023-11-23T03:48:10.103Z,0
2023-11-23T03:49:11.141Z,0
2023-11-23T03:50:12.343Z,0
2023-11-23T03:51:13.591Z,0
2023-11-23T03:52:14.802Z,0
2023-11-23T03:53:16.032Z,0
2023-11-23T03:54:17.437Z,0
2023-11-23T03:55:18.710Z,0
2023-11-23T03:56:20.043Z,0
2023-11-23T03:57:21.181Z,0
2023-11-23T03:58:22.395Z,0
2023-11-23T03:59:23.591Z,0
2023-11-23T04:00:24.796Z,0
2023-11-23T04:01:26.018Z,0
2023-11-23T04:02:27.247Z,0
2023-11-23T04:03:28.472Z,0
2023-11-23T04:04:29.806Z,0
2023-11-23T04:05:31.034Z,0
2023-11-23T04:06:32.248Z,0
2023-11-23T04:07:33.456Z,0
2023-11-23T04:08:34.713Z,0
2023-11-23T04:09:35.921Z,0
2023-11-23T04:10:37.140Z,0
2023-11-23T04:11:38.371Z,0
2023-11-23T04:12:39.623Z,0
2023-11-23T04:13:40.871Z,0
2023-11-23T04:14:42.200Z,0
2023-11-23T04:15:43.368Z,0
2023-11-23T04:16:44.677Z,0
2023-11-23T04:17:46.001Z,0
2023-11-23T04:18:47.192Z,0
2023-11-23T04:19:48.315Z,0
2023-11-23T04:20:49.703Z,0
2023-11-23T04:21:50.771Z,0
2023-11-23T04:22:51.976Z,0
2023-11-23T04:23:53.298Z,0
2023-11-23T04:24:54.566Z,0
2023-11-23T04:25:55.826Z,0
2023-11-23T04:26:57.012Z,0
2023-11-23T04:27:58.221Z,0
2023-11-23T04:28:59.450Z,0
2023-11-23T04:30:00.681Z,0
2023-11-23T04:31:01.884Z,0
2023-11-23T04:32:03.156Z,0
2023-11-23T04:33:04.454Z,0
2023-11-23T04:34:05.905Z,0
2023-11-23T04:35:07.013Z,0
2023-11-23T04:36:08.277Z,0
2023-11-23T04:37:09.540Z,0
2023-11-23T04:38:11.134Z,0
2023-11-23T04:39:12.476Z,0
2023-11-23T04:40:13.731Z,0
2023-11-23T04:41:14.943Z,0
2023-11-23T04:42:16.207Z,0
2023-11-23T04:43:17.477Z,0
2023-11-23T04:44:18.891Z,0
2023-11-23T04:45:20.222Z,0
2023-11-23T04:46:21.422Z,0
2023-11-23T04:47:22.678Z,0
2023-11-23T04:48:23.989Z,0
2023-11-23T04:49:25.155Z,0
2023-11-23T04:50:26.378Z,0
2023-11-23T04:51:27.618Z,0
2023-11-23T04:52:28.943Z,0
2023-11-23T04:53:30.145Z,0
2023-11-23T04:54:31.458Z,0
2023-11-23T04:55:32.659Z,0
2023-11-23T04:56:33.958Z,0
2023-11-23T04:57:35.149Z,0
2023-11-23T04:58:36.333Z,0
2023-11-23T04:59:37.535Z,0
2023-11-23T05:00:38.830Z,0
2023-11-23T05:01:40.035Z,0
2023-11-23T05:02:41.272Z,0
2023-11-23T05:03:42.546Z,0
2023-11-23T05:04:43.974Z,0
2023-11-23T05:05:45.164Z,0
2023-11-23T05:06:46.383Z,0
2023-11-23T05:07:47.609Z,0
2023-11-23T05:08:48.851Z,0
2023-11-23T05:09:50.057Z,0
2023-11-23T05:10:51.444Z,0
2023-11-23T05:11:52.984Z,0
2023-11-23T05:12:54.271Z,0
2023-11-23T05:13:55.525Z,0
2023-11-23T05:14:56.884Z,0
2023-11-23T05:15:58.102Z,0
2023-11-23T05:16:59.408Z,0
2023-11-23T05:18:00.780Z,0
2023-11-23T05:19:01.964Z,0
2023-11-23T05:20:03.200Z,0
2023-11-23T05:21:04.446Z,0
2023-11-23T05:22:05.684Z,0
2023-11-23T05:23:06.871Z,0
2023-11-23T05:24:08.164Z,0
2023-11-23T05:25:09.409Z,0
2023-11-23T05:26:10.596Z,0
2023-11-23T05:27:14.620Z,0
2023-11-23T05:28:15.787Z,0
2023-11-23T05:29:17.021Z,0
2023-11-23T05:30:18.235Z,0
2023-11-23T05:31:19.601Z,0
2023-11-23T05:32:20.678Z,0
2023-11-23T05:33:24.826Z,0
2023-11-23T05:34:23.297Z,0
2023-11-23T05:35:24.505Z,0
2023-11-23T05:36:25.735Z,0
2023-11-23T05:37:26.968Z,0
2023-11-23T05:38:28.438Z,0
2023-11-23T05:39:29.755Z,0
2023-11-23T05:41:32.947Z,0
2023-11-23T05:42:34.275Z,0
2023-11-23T05:43:35.511Z,0
2023-11-23T05:44:36.932Z,0
2023-11-23T05:45:43.254Z,0
2023-11-23T05:46:45.234Z,0
2023-11-23T05:47:46.517Z,0
2023-11-23T05:48:47.833Z,0
2023-11-23T05:49:49.080Z,0
2023-11-23T05:50:50.367Z,0
2023-11-23T05:51:51.536Z,0
2023-11-23T05:52:52.813Z,0
2023-11-23T05:53:54.041Z,0
2023-11-23T05:54:55.355Z,0
2023-11-23T05:55:56.694Z,0
2023-11-23T05:56:58.046Z,0
2023-11-23T05:57:59.258Z,0
2023-11-23T05:59:00.486Z,0
2023-11-23T06:00:01.764Z,0
2023-11-23T06:01:07.700Z,0
2023-11-23T06:02:08.640Z,0
2023-11-23T06:03:09.910Z,0
2023-11-23T06:04:11.438Z,0
2023-11-23T06:05:12.539Z,0
2023-11-23T06:06:13.846Z,0
2023-11-23T06:07:14.928Z,0
2023-11-23T06:08:16.164Z,0
2023-11-23T06:09:17.475Z,0
2023-11-23T06:10:18.721Z,1
2023-11-23T06:11:20.112Z,1
2023-11-23T06:12:21.247Z,1
2023-11-23T06:13:22.452Z,1
2023-11-23T06:14:23.741Z,0
2023-11-23T06:15:25.199Z,1
2023-11-23T06:16:26.525Z,1
2023-11-23T06:17:27.685Z,1
2023-11-23T06:18:28.970Z,1
2023-11-23T06:19:30.190Z,1
2023-11-23T06:20:31.480Z,0
2023-11-23T06:21:32.750Z,0
2023-11-23T06:22:33.935Z,0
2023-11-23T06:23:35.261Z,0
2023-11-23T06:24:36.555Z,0
2023-11-23T06:25:37.864Z,0
2023-11-23T06:26:39.111Z,0
2023-11-23T06:27:40.366Z,0
2023-11-23T06:28:41.604Z,0
2023-11-23T06:29:42.877Z,0
2023-11-23T06:30:44.339Z,0
2023-11-23T06:31:45.380Z,0
2023-11-23T06:32:46.647Z,0
2023-11-23T06:33:47.964Z,0
2023-11-23T06:34:49.384Z,0
2023-11-23T06:35:51.052Z,0
2023-11-23T06:36:52.317Z,0
2023-11-23T06:37:53.598Z,0
2023-11-23T06:38:54.845Z,0
2023-11-23T06:39:57.256Z,0
2023-11-23T06:40:57.321Z,36
2023-11-23T06:41:58.582Z,37
2023-11-23T06:42:59.886Z,37
2023-11-23T06:44:01.325Z,37
2023-11-23T06:45:02.663Z,37
2023-11-23T06:46:03.939Z,37
2023-11-23T06:47:05.153Z,37
2023-11-23T06:48:06.473Z,37
2023-11-23T06:49:08.055Z,37
2023-11-23T06:50:08.899Z,37
2023-11-23T06:51:10.311Z,37
2023-11-23T06:52:11.569Z,37
2023-11-23T06:53:12.792Z,37
2023-11-23T06:54:14.009Z,37
2023-11-23T06:56:21.559Z,37
2023-11-23T06:57:23.098Z,37
2023-11-23T06:58:24.319Z,37
2023-11-23T06:59:25.644Z,37
2023-11-23T07:00:27.281Z,37
2023-11-23T07:01:28.611Z,38
2023-11-23T07:02:30.036Z,38
2023-11-23T07:03:31.204Z,38
2023-11-23T07:04:32.443Z,38
2023-11-23T07:05:33.675Z,38
2023-11-23T07:06:35.155Z,38
2023-11-23T07:07:36.488Z,39
2023-11-23T07:08:37.718Z,39
2023-11-23T07:09:38.923Z,40
2023-11-23T07:10:40.219Z,40
2023-11-23T07:11:41.467Z,41
2023-11-23T07:12:42.631Z,41
2023-11-23T07:13:43.846Z,42
2023-11-23T07:14:45.076Z,42
2023-11-23T07:15:46.316Z,43
2023-11-23T07:16:47.782Z,43
2023-11-23T07:17:49.180Z,45
2023-11-23T07:18:50.255Z,45
2023-11-23T07:19:51.473Z,46
2023-11-23T07:20:52.830Z,47
2023-11-23T07:21:54.067Z,48
2023-11-23T07:22:55.375Z,49
2023-11-23T07:23:56.773Z,49
2023-11-23T07:24:57.990Z,48
2023-11-23T07:25:59.277Z,48
2023-11-23T07:27:00.585Z,49
2023-11-23T07:28:01.873Z,50
2023-11-23T07:29:03.164Z,50
2023-11-23T07:30:09.437Z,51
2023-11-23T07:31:10.992Z,53
2023-11-23T07:32:12.296Z,55
2023-11-23T07:33:13.690Z,56
2023-11-23T07:34:15.032Z,60
2023-11-23T07:35:21.182Z,67
2023-11-23T07:36:22.512Z,68
2023-11-23T07:37:23.728Z,68
2023-11-23T07:38:25.021Z,67
2023-11-23T07:39:26.521Z,64
2023-11-23T07:40:27.746Z,64
2023-11-23T07:41:29.138Z,61
2023-11-23T07:42:30.419Z,60
2023-11-23T07:43:31.614Z,57
2023-11-23T07:44:32.880Z,57
2023-11-23T07:45:34.378Z,56
2023-11-23T07:46:35.529Z,55
2023-11-23T07:47:36.914Z,54
2023-11-23T07:48:38.239Z,20
2023-11-23T07:49:39.509Z,20
2023-11-23T07:50:40.776Z,20
2023-11-23T07:51:41.996Z,20
2023-11-23T07:52:43.261Z,19
2023-11-23T07:53:44.718Z,20
2023-11-23T07:54:46.041Z,20
2023-11-23T07:55:47.270Z,22
2023-11-23T07:56:48.523Z,22
2023-11-23T07:57:49.989Z,26
2023-11-23T07:58:51.031Z,25
2023-11-23T07:59:52.326Z,26
2023-11-23T08:00:53.503Z,29
2023-11-23T08:01:54.829Z,31
2023-11-23T08:02:56.289Z,32
2023-11-23T08:03:57.710Z,31
2023-11-23T08:04:58.847Z,33
2023-11-23T08:06:00.366Z,37
2023-11-23T08:07:01.505Z,39
2023-11-23T08:08:02.986Z,41
2023-11-23T08:09:04.362Z,44
2023-11-23T08:10:05.802Z,42
2023-11-23T08:11:07.058Z,42
2023-11-23T08:12:08.267Z,49
2023-11-23T08:13:09.529Z,49
2023-11-23T08:14:10.749Z,48
2023-11-23T08:15:12.112Z,47
2023-11-23T08:16:13.518Z,49
2023-11-23T08:17:14.738Z,49
2023-11-23T08:18:16.224Z,46
2023-11-23T08:19:17.433Z,50
2023-11-23T08:20:18.678Z,48
2023-11-23T08:21:20.048Z,51
2023-11-23T08:22:21.236Z,53
2023-11-23T08:23:22.585Z,58
2023-11-23T08:24:23.965Z,60
2023-11-23T08:25:25.015Z,63
2023-11-23T08:26:26.251Z,60
2023-11-23T08:27:27.566Z,63
2023-11-23T08:28:28.693Z,66
2023-11-23T08:29:29.920Z,60
2023-11-23T08:30:31.183Z,62
2023-11-23T08:31:32.507Z,67
2023-11-23T08:32:33.818Z,61
2023-11-23T08:33:35.208Z,58
2023-11-23T08:34:36.415Z,58
2023-11-23T08:35:37.617Z,57
2023-11-23T08:36:38.930Z,54
2023-11-23T08:37:40.113Z,54
2023-11-23T08:38:41.403Z,53
2023-11-23T08:39:42.779Z,58
2023-11-23T08:40:43.985Z,51
2023-11-23T08:41:45.226Z,51
2023-11-23T08:42:46.543Z,45
2023-11-23T08:43:47.799Z,48
2023-11-23T08:44:49.044Z,46
2023-11-23T08:45:50.318Z,45
2023-11-23T08:46:51.591Z,46
2023-11-23T08:47:52.866Z,44
2023-11-23T08:48:54.079Z,44
2023-11-23T08:49:55.311Z,43
2023-11-23T08:50:56.551Z,47
2023-11-23T08:51:57.799Z,51
2023-11-23T08:52:59.087Z,47
2023-11-23T08:54:00.439Z,52
2023-11-23T08:55:01.674Z,51
2023-11-23T08:56:02.873Z,55
2023-11-23T08:57:04.147Z,50
2023-11-23T08:58:05.408Z,44
2023-11-23T08:59:06.643Z,48
2023-11-23T09:00:08.008Z,44
2023-11-23T09:01:09.357Z,43
2023-11-23T09:02:16.659Z,48
2023-11-23T09:03:11.828Z,46
2023-11-23T09:04:13.186Z,44
2023-11-23T09:05:14.487Z,46
2023-11-23T09:06:15.606Z,46
2023-11-23T09:07:16.957Z,47
2023-11-23T09:08:18.031Z,49
2023-11-23T09:09:20.014Z,53
2023-11-23T09:10:20.728Z,51
2023-11-23T09:11:21.935Z,53
2023-11-23T09:12:23.183Z,51
2023-11-23T09:13:24.381Z,51
2023-11-23T09:14:25.774Z,53
2023-11-23T09:15:27.028Z,51
2023-11-23T09:16:28.223Z,52
2023-11-23T09:17:29.452Z,56
2023-11-23T09:18:30.845Z,51
2023-11-23T09:19:31.952Z,53
2023-11-23T09:20:33.136Z,59
2023-11-23T09:21:34.404Z,57
2023-11-23T09:22:35.618Z,59
2023-11-23T09:23:36.842Z,59
2023-11-23T09:24:38.225Z,64
2023-11-23T09:25:39.509Z,62
2023-11-23T09:26:40.700Z,58
2023-11-23T09:27:41.999Z,55
2023-11-23T09:28:43.156Z,57
2023-11-23T09:29:44.367Z,53
2023-11-23T09:30:45.592Z,57
2023-11-23T09:31:46.842Z,55
2023-11-23T09:32:48.100Z,58
2023-11-23T09:33:49.397Z,59
2023-11-23T09:34:50.661Z,59
2023-11-23T09:35:51.868Z,60
2023-11-23T09:36:53.105Z,54
2023-11-23T09:37:54.322Z,55
2023-11-23T09:38:55.627Z,58
2023-11-23T09:39:56.762Z,58
2023-11-23T09:40:57.994Z,56
2023-11-23T09:41:59.522Z,59
2023-11-23T09:43:00.698Z,64
2023-11-23T09:44:01.917Z,64
2023-11-23T09:45:03.475Z,60
2023-11-23T09:46:04.771Z,59
2023-11-23T09:47:05.952Z,59
2023-11-23T09:48:07.234Z,59
2023-11-23T09:49:08.619Z,59
2023-11-23T09:50:09.832Z,64
2023-11-23T09:51:11.114Z,65
2023-11-23T09:52:12.257Z,64
2023-11-23T09:53:13.454Z,70
2023-11-23T09:54:14.745Z,69
2023-11-23T09:55:16.053Z,75
2023-11-23T09:56:17.291Z,74
2023-11-23T09:57:18.527Z,78
2023-11-23T09:58:19.715Z,80
2023-11-23T09:59:20.909Z,77
2023-11-23T10:00:22.301Z,78
2023-11-23T10:01:23.447Z,95
2023-11-23T10:02:24.775Z,93
2023-11-23T10:03:25.938Z,100
2023-11-23T10:04:27.186Z,95
2023-11-23T10:05:28.468Z,99
2023-11-23T10:06:29.703Z,100
2023-11-23T10:07:30.900Z,99
2023-11-23T10:08:34.565Z,105
2023-11-23T10:09:33.529Z,101
2023-11-23T10:10:34.674Z,110
2023-11-23T10:11:35.943Z,107
2023-11-23T10:12:37.251Z,108
2023-11-23T10:13:38.405Z,121
2023-11-23T10:14:39.683Z,121
2023-11-23T10:15:41.011Z,112
2023-11-23T10:16:42.267Z,106
2023-11-23T10:17:43.596Z,102
2023-11-23T10:18:44.765Z,95
2023-11-23T10:19:45.835Z,97
2023-11-23T10:20:47.050Z,116
2023-11-23T10:21:48.276Z,100
2023-11-23T10:22:49.564Z,105
2023-11-23T10:23:50.764Z,115
2023-11-23T10:24:51.997Z,107
2023-11-23T10:25:53.388Z,106
2023-11-23T10:26:54.732Z,93
2023-11-23T10:27:55.928Z,113
2023-11-23T10:28:57.152Z,112
2023-11-23T10:29:58.406Z,128
2023-11-23T10:30:59.635Z,115
2023-11-23T10:32:01.137Z,112
2023-11-23T10:33:02.241Z,121
2023-11-23T10:34:03.353Z,118
2023-11-23T10:35:04.539Z,125
2023-11-23T10:36:06.001Z,96
2023-11-23T10:37:07.251Z,107
2023-11-23T10:38:08.439Z,101
2023-11-23T10:39:09.692Z,111
2023-11-23T10:40:12.512Z,111
2023-11-23T10:41:12.095Z,100
2023-11-23T10:42:13.322Z,109
2023-11-23T10:43:14.502Z,110
2023-11-23T10:44:15.741Z,97
2023-11-23T10:45:17.234Z,91
2023-11-23T10:46:18.543Z,111
2023-11-23T10:47:19.768Z,103
2023-11-23T10:48:21.061Z,108
2023-11-23T10:49:22.316Z,127
2023-11-23T10:50:23.536Z,116
2023-11-23T10:51:24.733Z,119
2023-11-23T10:52:25.971Z,127
2023-11-23T10:53:27.277Z,141
2023-11-23T10:54:28.541Z,146
2023-11-23T10:55:29.964Z,146
2023-11-23T10:56:31.288Z,124
2023-11-23T10:57:32.731Z,101
2023-11-23T10:58:33.899Z,96
2023-11-23T10:59:35.177Z,106
2023-11-23T11:00:36.701Z,71
2023-11-23T11:01:38.010Z,82
2023-11-23T11:02:39.151Z,74
2023-11-23T11:03:40.442Z,80
2023-11-23T11:04:41.632Z,65
2023-11-23T11:05:42.798Z,77
2023-11-23T11:06:44.226Z,49
2023-11-23T11:07:45.463Z,68
2023-11-23T11:08:46.690Z,70
2023-11-23T11:09:47.908Z,59
2023-11-23T11:10:49.146Z,57
2023-11-23T11:11:50.364Z,58
2023-11-23T11:12:51.597Z,59
2023-11-23T11:13:52.900Z,45
2023-11-23T11:14:54.103Z,65
2023-11-23T11:15:55.370Z,57
2023-11-23T11:16:56.725Z,61
2023-11-23T11:17:58.178Z,75
2023-11-23T11:18:59.351Z,69
2023-11-23T11:20:00.725Z,65
2023-11-23T11:21:02.150Z,71
2023-11-23T11:22:03.496Z,70
2023-11-23T11:23:04.842Z,75
2023-11-23T11:24:06.142Z,76
2023-11-23T11:25:07.338Z,79
2023-11-23T11:26:08.657Z,73
2023-11-23T11:27:09.990Z,53
2023-11-23T11:28:11.214Z,52
2023-11-23T11:29:12.408Z,85
2023-11-23T11:30:13.677Z,68
2023-11-23T11:31:15.186Z,83
2023-11-23T11:32:16.196Z,85
2023-11-23T11:33:17.585Z,87
2023-11-23T11:34:18.759Z,83
2023-11-23T11:35:20.222Z,78
2023-11-23T11:36:21.392Z,87
2023-11-23T11:37:22.751Z,85
2023-11-23T11:38:24.039Z,76
2023-11-23T11:39:25.347Z,84
2023-11-23T11:40:26.579Z,82
2023-11-23T11:41:28.022Z,62
2023-11-23T11:42:29.250Z,65
2023-11-23T11:43:30.375Z,65
2023-11-23T11:44:31.588Z,67
2023-11-23T11:45:32.867Z,78
2023-11-23T11:46:34.079Z,79
2023-11-23T11:47:35.434Z,89
2023-11-23T11:48:36.769Z,62
2023-11-23T11:49:37.995Z,68
2023-11-23T11:50:39.244Z,63
2023-11-23T11:51:40.706Z,64
2023-11-23T11:52:42.106Z,65
2023-11-23T11:53:43.369Z,65
2023-11-23T11:54:44.819Z,68
2023-11-23T11:55:45.993Z,35
2023-11-23T11:56:47.266Z,67
2023-11-23T11:57:48.622Z,67
2023-11-23T11:58:49.923Z,53
2023-11-23T11:59:51.158Z,63
2023-11-23T12:00:52.862Z,79
2023-11-23T12:01:54.277Z,80
2023-11-23T12:02:55.689Z,72
2023-11-23T12:03:57.058Z,75
2023-11-23T12:04:58.380Z,78
2023-11-23T12:05:59.726Z,74
2023-11-23T12:07:00.994Z,77
2023-11-23T12:08:02.860Z,82
2023-11-23T12:09:04.324Z,71
2023-11-23T12:10:09.214Z,67
2023-11-23T12:11:11.127Z,66
2023-11-23T12:12:12.462Z,65
2023-11-23T12:13:13.668Z,66
2023-11-23T12:14:15.054Z,70
2023-11-23T12:15:16.493Z,66
2023-11-23T12:16:17.627Z,73
2023-11-23T12:17:18.885Z,74
2023-11-23T12:18:20.254Z,73
2023-11-23T12:19:21.523Z,66
2023-11-23T12:20:22.749Z,81
2023-11-23T12:21:24.231Z,64
2023-11-23T12:22:25.450Z,70
2023-11-23T12:23:27.659Z,76
2023-11-23T12:24:27.919Z,78
2023-11-23T12:25:29.174Z,74
2023-11-23T12:26:30.417Z,86
2023-11-23T12:27:31.778Z,89
2023-11-23T12:28:32.977Z,73
2023-11-23T12:29:34.246Z,75
2023-11-23T12:30:35.611Z,76
2023-11-23T12:31:36.995Z,90
2023-11-23T12:32:38.198Z,82
2023-11-23T12:33:39.500Z,79
2023-11-23T12:34:40.642Z,78
2023-11-23T12:35:41.874Z,79
2023-11-23T12:36:43.132Z,79
2023-11-23T12:37:44.320Z,76
2023-11-23T12:38:45.652Z,84
2023-11-23T12:39:46.940Z,75
2023-11-23T12:40:48.160Z,70
2023-11-23T12:41:53.006Z,71
2023-11-23T12:42:50.879Z,71
2023-11-23T12:43:52.126Z,64
2023-11-23T12:44:53.399Z,75
2023-11-23T12:45:54.796Z,73
2023-11-23T12:46:56.001Z,77
2023-11-23T12:47:57.264Z,73
2023-11-23T12:48:58.571Z,73
2023-11-23T12:49:59.806Z,73
2023-11-23T12:51:01.171Z,74
2023-11-23T12:52:02.730Z,79
2023-11-23T12:53:04.098Z,79
2023-11-23T12:54:05.640Z,74
2023-11-23T12:55:07.038Z,72
2023-11-23T12:56:08.311Z,67
2023-11-23T12:57:09.642Z,63
2023-11-23T12:58:10.940Z,63
2023-11-23T12:59:12.272Z,63
2023-11-23T13:00:14.272Z,53
2023-11-23T13:01:15.441Z,63
2023-11-23T13:02:16.806Z,60
2023-11-23T13:03:18.207Z,55
2023-11-23T13:04:19.485Z,56
2023-11-23T13:05:20.709Z,55
2023-11-23T13:06:22.023Z,49
2023-11-23T13:07:23.207Z,54
2023-11-23T13:08:24.451Z,52
2023-11-23T13:09:27.429Z,45
2023-11-23T13:10:27.303Z,54
2023-11-23T13:11:28.568Z,50
2023-11-23T13:12:30.120Z,50
2023-11-23T13:13:31.504Z,38
2023-11-23T13:14:32.744Z,44
2023-11-23T13:15:34.071Z,50
2023-11-23T13:16:35.208Z,49
2023-11-23T13:17:36.481Z,47
2023-11-23T13:18:47.416Z,55
2023-11-23T13:20:41.933Z,54
2023-11-23T13:21:41.474Z,49
2023-11-23T13:22:42.679Z,61
2023-11-23T13:23:43.897Z,60
2023-11-23T13:24:45.220Z,56
2023-11-23T13:25:46.544Z,56
2023-11-23T13:26:47.861Z,66
2023-11-23T13:27:49.089Z,60
2023-11-23T13:28:50.408Z,61
2023-11-23T13:29:51.786Z,60
2023-11-23T13:30:53.225Z,57
2023-11-23T13:31:54.443Z,56
2023-11-23T13:32:55.652Z,53
2023-11-23T13:33:57.143Z,56
2023-11-23T13:34:58.245Z,53
2023-11-23T13:35:59.478Z,50
2023-11-23T13:37:00.722Z,50
2023-11-23T13:38:01.937Z,54
2023-11-23T13:39:03.187Z,49
2023-11-23T13:40:04.552Z,43
2023-11-23T13:41:06.006Z,48
2023-11-23T13:42:07.250Z,46
2023-11-23T13:43:08.412Z,48
2023-11-23T13:44:09.722Z,54
2023-11-23T13:45:12.534Z,53
2023-11-23T13:46:12.472Z,47
2023-11-23T13:47:13.448Z,48
2023-11-23T13:48:14.764Z,49
2023-11-23T13:49:15.965Z,43
2023-11-23T13:50:17.212Z,45
2023-11-23T13:51:18.597Z,52
2023-11-23T13:52:19.777Z,43
2023-11-23T13:53:21.020Z,42
2023-11-23T13:54:22.277Z,39
2023-11-23T13:55:23.487Z,40
2023-11-23T13:56:24.699Z,45
2023-11-23T13:57:25.968Z,39
2023-11-23T13:58:27.173Z,43
2023-11-23T13:59:28.380Z,41
2023-11-23T14:00:31.014Z,39
2023-11-23T14:01:32.507Z,37
2023-11-23T14:02:33.674Z,39
2023-11-23T14:03:34.943Z,37
2023-11-23T14:04:36.229Z,34
2023-11-23T14:05:37.600Z,31
2023-11-23T14:06:38.863Z,30
2023-11-23T14:07:40.265Z,30
2023-11-23T14:08:41.484Z,26
2023-11-23T14:09:42.936Z,25
2023-11-23T14:10:44.268Z,15
2023-11-23T14:11:45.501Z,23
2023-11-23T14:12:46.889Z,23
2023-11-23T14:13:48.118Z,24
2023-11-23T14:14:49.325Z,25
2023-11-23T14:15:50.747Z,24
2023-11-23T14:16:51.900Z,22
2023-11-23T14:17:53.094Z,22
2023-11-23T14:18:54.383Z,21
2023-11-23T14:19:55.610Z,22
2023-11-23T14:20:57.134Z,20
2023-11-23T14:21:58.329Z,20
2023-11-23T14:22:59.590Z,19
2023-11-23T14:24:00.800Z,55
2023-11-23T14:25:02.048Z,53
2023-11-23T14:26:03.302Z,51
2023-11-23T14:27:04.602Z,51
2023-11-23T14:28:05.815Z,53
2023-11-23T14:29:07.039Z,51
2023-11-23T14:30:08.402Z,52
2023-11-23T14:31:09.479Z,49
2023-11-23T14:32:10.744Z,49
2023-11-23T14:33:12.006Z,49
2023-11-23T14:34:13.283Z,46
2023-11-23T14:35:14.535Z,46
2023-11-23T14:36:16.049Z,46
2023-11-23T14:37:17.037Z,45
2023-11-23T14:38:18.291Z,45
2023-11-23T14:39:19.603Z,9
2023-11-23T14:40:20.826Z,9
2023-11-23T14:41:22.069Z,9
2023-11-23T14:42:23.274Z,9
2023-11-23T14:43:24.619Z,10
2023-11-23T14:44:25.934Z,8
2023-11-23T14:45:28.422Z,8
2023-11-23T14:46:28.452Z,8
2023-11-23T14:47:29.709Z,9
2023-11-23T14:48:30.927Z,8
2023-11-23T14:49:32.112Z,8
2023-11-23T14:50:33.352Z,8
2023-11-23T14:51:34.817Z,7
2023-11-23T14:52:36.033Z,8